sensor_id;sensor_type;location;lat;lon;timestamp;temperature;humidity
52725;DHT22;38621;52.830;6.914;2024-03-22T00:01:49;9.20;99.90
52725;DHT22;38621;52.830;6.914;2024-03-22T00:04:16;9.30;99.90
52725;DHT22;38621;52.830;6.914;2024-03-22T00:06:42;9.20;99.90
52725;DHT22;38621;52.830;6.914;2024-03-22T00:09:09;9.30;99.90
52725;DHT22;38621;52.830;6.914;2024-03-22T00:11:35;9.30;99.90
52725;DHT22;38621;52.830;6.914;2024-03-22T00:14:01;9.30;99.90
52725;DHT22;38621;52.830;6.914;2024-03-22T00:16:27;9.30;99.90
52725;DHT22;38621;52.830;6.914;2024-03-22T00:18:53;9.30;99.90
52725;DHT22;38621;52.830;6.914;2024-03-22T00:21:18;9.30;99.90
52725;DHT22;38621;52.830;6.914;2024-03-22T00:23:45;9.40;99.90
52725;DHT22;38621;52.830;6.914;2024-03-22T00:26:11;9.40;99.90
52725;DHT22;38621;52.830;6.914;2024-03-22T00:28:37;9.40;99.90
52725;DHT22;38621;52.830;6.914;2024-03-22T00:31:02;9.40;99.90
52725;DHT22;38621;52.830;6.914;2024-03-22T00:33:28;9.40;99.90
52725;DHT22;38621;52.830;6.914;2024-03-22T00:35:53;9.40;99.90
52725;DHT22;38621;52.830;6.914;2024-03-22T00:38:19;9.40;99.90
52725;DHT22;38621;52.830;6.914;2024-03-22T00:40:45;9.40;99.90
52725;DHT22;38621;52.830;6.914;2024-03-22T00:43:11;9.50;99.90
52725;DHT22;38621;52.830;6.914;2024-03-22T00:45:36;9.50;99.90
52725;DHT22;38621;52.830;6.914;2024-03-22T00:48:02;9.50;99.90
52725;DHT22;38621;52.830;6.914;2024-03-22T00:50:28;9.50;99.90
52725;DHT22;38621;52.830;6.914;2024-03-22T00:52:54;9.60;99.90
52725;DHT22;38621;52.830;6.914;2024-03-22T00:55:23;9.50;99.90
52725;DHT22;38621;52.830;6.914;2024-03-22T00:57:49;9.50;99.90
52725;DHT22;38621;52.830;6.914;2024-03-22T01:00:16;9.60;99.90
52725;DHT22;38621;52.830;6.914;2024-03-22T01:02:42;9.60;99.90
52725;DHT22;38621;52.830;6.914;2024-03-22T01:05:08;9.60;99.90
52725;DHT22;38621;52.830;6.914;2024-03-22T01:07:35;9.60;99.90
52725;DHT22;38621;52.830;6.914;2024-03-22T01:10:01;9.70;99.90
52725;DHT22;38621;52.830;6.914;2024-03-22T01:12:26;9.70;99.90
52725;DHT22;38621;52.830;6.914;2024-03-22T01:14:52;9.70;99.90
52725;DHT22;38621;52.830;6.914;2024-03-22T01:17:17;9.70;99.90
52725;DHT22;38621;52.830;6.914;2024-03-22T01:19:43;9.70;99.90
52725;DHT22;38621;52.830;6.914;2024-03-22T01:22:09;9.70;99.90
52725;DHT22;38621;52.830;6.914;2024-03-22T01:24:34;9.70;99.90
52725;DHT22;38621;52.830;6.914;2024-03-22T01:27:00;9.80;99.90
52725;DHT22;38621;52.830;6.914;2024-03-22T01:29:26;9.80;99.90
52725;DHT22;38621;52.830;6.914;2024-03-22T01:31:53;9.70;99.90
52725;DHT22;38621;52.830;6.914;2024-03-22T01:34:18;9.70;99.90
52725;DHT22;38621;52.830;6.914;2024-03-22T01:36:44;9.80;99.90
52725;DHT22;38621;52.830;6.914;2024-03-22T01:39:10;9.80;99.90
52725;DHT22;38621;52.830;6.914;2024-03-22T01:41:36;9.90;99.90
52725;DHT22;38621;52.830;6.914;2024-03-22T01:44:02;9.90;99.90
52725;DHT22;38621;52.830;6.914;2024-03-22T01:46:27;10.10;99.90
52725;DHT22;38621;52.830;6.914;2024-03-22T01:48:53;9.90;99.90
52725;DHT22;38621;52.830;6.914;2024-03-22T01:51:19;9.80;99.90
52725;DHT22;38621;52.830;6.914;2024-03-22T01:53:45;9.80;99.90
52725;DHT22;38621;52.830;6.914;2024-03-22T01:56:11;9.80;99.90
52725;DHT22;38621;52.830;6.914;2024-03-22T01:58:37;10.10;99.90
52725;DHT22;38621;52.830;6.914;2024-03-22T02:01:02;9.90;99.90
52725;DHT22;38621;52.830;6.914;2024-03-22T02:03:28;9.90;99.90
52725;DHT22;38621;52.830;6.914;2024-03-22T02:05:54;9.90;99.90
52725;DHT22;38621;52.830;6.914;2024-03-22T02:08:20;10.10;99.90
52725;DHT22;38621;52.830;6.914;2024-03-22T02:10:46;9.90;99.90
52725;DHT22;38621;52.830;6.914;2024-03-22T02:13:12;9.90;99.90
52725;DHT22;38621;52.830;6.914;2024-03-22T02:15:37;9.90;99.90
52725;DHT22;38621;52.830;6.914;2024-03-22T02:18:03;9.90;99.90
52725;DHT22;38621;52.830;6.914;2024-03-22T02:20:30;10.00;99.90
52725;DHT22;38621;52.830;6.914;2024-03-22T02:22:55;10.00;99.90
52725;DHT22;38621;52.830;6.914;2024-03-22T02:25:21;9.90;99.90
52725;DHT22;38621;52.830;6.914;2024-03-22T02:27:47;10.00;99.90
52725;DHT22;38621;52.830;6.914;2024-03-22T02:30:16;10.00;99.90
52725;DHT22;38621;52.830;6.914;2024-03-22T02:32:42;10.00;99.90
52725;DHT22;38621;52.830;6.914;2024-03-22T02:35:08;10.00;99.90
52725;DHT22;38621;52.830;6.914;2024-03-22T02:37:33;10.00;99.90
52725;DHT22;38621;52.830;6.914;2024-03-22T02:39:59;10.00;99.90
52725;DHT22;38621;52.830;6.914;2024-03-22T02:42:25;10.00;99.90
52725;DHT22;38621;52.830;6.914;2024-03-22T02:44:51;10.10;99.90
52725;DHT22;38621;52.830;6.914;2024-03-22T02:47:17;10.10;99.90
52725;DHT22;38621;52.830;6.914;2024-03-22T02:49:43;10.10;99.90
52725;DHT22;38621;52.830;6.914;2024-03-22T02:52:08;10.20;99.90
52725;DHT22;38621;52.830;6.914;2024-03-22T02:54:34;10.20;99.90
52725;DHT22;38621;52.830;6.914;2024-03-22T02:57:00;10.10;99.90
52725;DHT22;38621;52.830;6.914;2024-03-22T02:59:27;10.10;99.90
52725;DHT22;38621;52.830;6.914;2024-03-22T03:01:53;10.20;99.90
52725;DHT22;38621;52.830;6.914;2024-03-22T03:04:19;10.30;99.90
52725;DHT22;38621;52.830;6.914;2024-03-22T03:06:44;10.20;99.90
52725;DHT22;38621;52.830;6.914;2024-03-22T03:09:13;10.20;99.90
52725;DHT22;38621;52.830;6.914;2024-03-22T03:11:39;10.20;99.90
52725;DHT22;38621;52.830;6.914;2024-03-22T03:14:05;10.10;99.90
52725;DHT22;38621;52.830;6.914;2024-03-22T03:16:31;10.20;99.90
52725;DHT22;38621;52.830;6.914;2024-03-22T03:18:56;10.30;99.90
52725;DHT22;38621;52.830;6.914;2024-03-22T03:21:22;10.30;99.90
52725;DHT22;38621;52.830;6.914;2024-03-22T03:23:48;10.30;99.90
52725;DHT22;38621;52.830;6.914;2024-03-22T03:26:13;10.20;99.90
52725;DHT22;38621;52.830;6.914;2024-03-22T03:28:39;10.30;99.90
52725;DHT22;38621;52.830;6.914;2024-03-22T03:31:05;10.30;99.90
52725;DHT22;38621;52.830;6.914;2024-03-22T03:33:30;10.30;99.90
52725;DHT22;38621;52.830;6.914;2024-03-22T03:35:56;10.30;99.90
52725;DHT22;38621;52.830;6.914;2024-03-22T03:38:22;10.20;99.90
52725;DHT22;38621;52.830;6.914;2024-03-22T03:40:48;10.30;99.90
52725;DHT22;38621;52.830;6.914;2024-03-22T03:43:13;10.20;99.90
52725;DHT22;38621;52.830;6.914;2024-03-22T03:45:39;10.20;99.90
52725;DHT22;38621;52.830;6.914;2024-03-22T03:48:05;10.20;99.90
52725;DHT22;38621;52.830;6.914;2024-03-22T03:50:31;10.20;99.90
52725;DHT22;38621;52.830;6.914;2024-03-22T03:52:56;10.20;99.90
52725;DHT22;38621;52.830;6.914;2024-03-22T03:55:23;10.30;99.90
52725;DHT22;38621;52.830;6.914;2024-03-22T03:57:51;10.30;99.90
52725;DHT22;38621;52.830;6.914;2024-03-22T04:00:19;10.30;99.90
52725;DHT22;38621;52.830;6.914;2024-03-22T04:02:45;10.30;99.90
52725;DHT22;38621;52.830;6.914;2024-03-22T04:05:10;10.30;99.90
52725;DHT22;38621;52.830;6.914;2024-03-22T04:07:36;10.30;99.90
52725;DHT22;38621;52.830;6.914;2024-03-22T04:10:02;10.20;99.90
52725;DHT22;38621;52.830;6.914;2024-03-22T04:12:28;10.20;99.90
52725;DHT22;38621;52.830;6.914;2024-03-22T04:14:54;10.20;99.90
52725;DHT22;38621;52.830;6.914;2024-03-22T04:17:20;10.20;99.90
52725;DHT22;38621;52.830;6.914;2024-03-22T04:19:45;10.10;99.90
52725;DHT22;38621;52.830;6.914;2024-03-22T04:22:11;10.10;99.90
52725;DHT22;38621;52.830;6.914;2024-03-22T04:24:37;10.10;99.90
52725;DHT22;38621;52.830;6.914;2024-03-22T04:27:02;10.20;99.90
52725;DHT22;38621;52.830;6.914;2024-03-22T04:29:28;10.20;99.90
52725;DHT22;38621;52.830;6.914;2024-03-22T04:31:54;10.30;99.90
52725;DHT22;38621;52.830;6.914;2024-03-22T04:34:19;10.20;99.90
52725;DHT22;38621;52.830;6.914;2024-03-22T04:36:45;10.20;99.90
52725;DHT22;38621;52.830;6.914;2024-03-22T04:39:10;10.20;99.90
52725;DHT22;38621;52.830;6.914;2024-03-22T04:41:37;10.20;99.90
52725;DHT22;38621;52.830;6.914;2024-03-22T04:44:03;10.20;99.90
52725;DHT22;38621;52.830;6.914;2024-03-22T04:46:29;10.20;99.90
52725;DHT22;38621;52.830;6.914;2024-03-22T04:48:54;10.20;99.90
52725;DHT22;38621;52.830;6.914;2024-03-22T04:51:20;10.50;99.90
52725;DHT22;38621;52.830;6.914;2024-03-22T04:53:46;10.20;99.90
52725;DHT22;38621;52.830;6.914;2024-03-22T04:56:11;10.20;99.90
52725;DHT22;38621;52.830;6.914;2024-03-22T04:58:37;10.30;99.90
52725;DHT22;38621;52.830;6.914;2024-03-22T05:01:03;10.30;99.90
52725;DHT22;38621;52.830;6.914;2024-03-22T05:03:28;10.30;99.90
52725;DHT22;38621;52.830;6.914;2024-03-22T05:05:54;10.30;99.90
52725;DHT22;38621;52.830;6.914;2024-03-22T05:08:20;10.30;99.90
52725;DHT22;38621;52.830;6.914;2024-03-22T05:10:46;10.30;99.90
52725;DHT22;38621;52.830;6.914;2024-03-22T05:13:12;10.30;99.90
52725;DHT22;38621;52.830;6.914;2024-03-22T05:15:37;10.30;99.90
52725;DHT22;38621;52.830;6.914;2024-03-22T05:18:03;10.30;99.90
52725;DHT22;38621;52.830;6.914;2024-03-22T05:20:30;10.30;99.90
52725;DHT22;38621;52.830;6.914;2024-03-22T05:22:55;10.30;99.90
52725;DHT22;38621;52.830;6.914;2024-03-22T05:25:21;10.40;99.90
52725;DHT22;38621;52.830;6.914;2024-03-22T05:27:47;10.40;99.90
52725;DHT22;38621;52.830;6.914;2024-03-22T05:30:13;10.40;99.90
52725;DHT22;38621;52.830;6.914;2024-03-22T05:32:39;10.40;99.90
52725;DHT22;38621;52.830;6.914;2024-03-22T05:35:05;10.50;99.90
52725;DHT22;38621;52.830;6.914;2024-03-22T05:37:32;10.40;99.90
52725;DHT22;38621;52.830;6.914;2024-03-22T05:39:59;10.40;99.90
52725;DHT22;38621;52.830;6.914;2024-03-22T05:42:25;10.50;99.90
52725;DHT22;38621;52.830;6.914;2024-03-22T05:44:51;10.40;99.90
52725;DHT22;38621;52.830;6.914;2024-03-22T05:47:18;10.40;99.90
52725;DHT22;38621;52.830;6.914;2024-03-22T05:49:45;10.40;99.90
52725;DHT22;38621;52.830;6.914;2024-03-22T05:52:10;10.40;99.90
52725;DHT22;38621;52.830;6.914;2024-03-22T05:54:37;10.40;99.90
52725;DHT22;38621;52.830;6.914;2024-03-22T05:57:03;10.40;99.90
52725;DHT22;38621;52.830;6.914;2024-03-22T05:59:30;10.40;99.90
52725;DHT22;38621;52.830;6.914;2024-03-22T06:01:56;10.30;99.90
52725;DHT22;38621;52.830;6.914;2024-03-22T06:04:22;10.20;99.90
52725;DHT22;38621;52.830;6.914;2024-03-22T06:06:49;10.20;99.90
52725;DHT22;38621;52.830;6.914;2024-03-22T06:09:15;10.10;99.90
52725;DHT22;38621;52.830;6.914;2024-03-22T06:11:49;10.10;99.90
52725;DHT22;38621;52.830;6.914;2024-03-22T06:14:15;10.10;99.90
52725;DHT22;38621;52.830;6.914;2024-03-22T06:16:41;10.20;99.90
52725;DHT22;38621;52.830;6.914;2024-03-22T06:19:07;10.10;99.90
52725;DHT22;38621;52.830;6.914;2024-03-22T06:21:32;10.20;99.90
52725;DHT22;38621;52.830;6.914;2024-03-22T06:23:58;10.10;99.90
52725;DHT22;38621;52.830;6.914;2024-03-22T06:26:24;10.00;99.90
52725;DHT22;38621;52.830;6.914;2024-03-22T06:28:49;10.10;99.90
52725;DHT22;38621;52.830;6.914;2024-03-22T06:31:15;10.10;99.90
52725;DHT22;38621;52.830;6.914;2024-03-22T06:33:41;10.20;99.90
52725;DHT22;38621;52.830;6.914;2024-03-22T06:36:07;10.10;99.90
52725;DHT22;38621;52.830;6.914;2024-03-22T06:38:33;10.10;99.90
52725;DHT22;38621;52.830;6.914;2024-03-22T06:40:59;10.20;99.90
52725;DHT22;38621;52.830;6.914;2024-03-22T06:43:24;10.10;99.90
52725;DHT22;38621;52.830;6.914;2024-03-22T06:45:50;10.10;99.90
52725;DHT22;38621;52.830;6.914;2024-03-22T06:48:16;10.10;99.90
52725;DHT22;38621;52.830;6.914;2024-03-22T06:50:42;10.30;99.90
52725;DHT22;38621;52.830;6.914;2024-03-22T06:53:07;10.10;99.90
52725;DHT22;38621;52.830;6.914;2024-03-22T06:55:35;10.10;99.90
52725;DHT22;38621;52.830;6.914;2024-03-22T06:58:01;10.00;99.90
52725;DHT22;38621;52.830;6.914;2024-03-22T07:00:26;10.10;99.90
52725;DHT22;38621;52.830;6.914;2024-03-22T07:02:52;10.10;99.90
52725;DHT22;38621;52.830;6.914;2024-03-22T07:05:18;10.10;99.90
52725;DHT22;38621;52.830;6.914;2024-03-22T07:07:44;10.10;99.90
52725;DHT22;38621;52.830;6.914;2024-03-22T07:10:09;10.30;99.90
52725;DHT22;38621;52.830;6.914;2024-03-22T07:12:35;10.10;99.90
52725;DHT22;38621;52.830;6.914;2024-03-22T07:15:01;10.10;99.90
52725;DHT22;38621;52.830;6.914;2024-03-22T07:17:28;10.10;99.90
52725;DHT22;38621;52.830;6.914;2024-03-22T07:19:54;10.10;99.90
52725;DHT22;38621;52.830;6.914;2024-03-22T07:22:20;10.10;99.90
52725;DHT22;38621;52.830;6.914;2024-03-22T07:24:46;10.10;99.90
52725;DHT22;38621;52.830;6.914;2024-03-22T07:27:16;10.10;99.90
52725;DHT22;38621;52.830;6.914;2024-03-22T07:29:43;10.10;99.90
52725;DHT22;38621;52.830;6.914;2024-03-22T07:32:09;10.10;99.90
52725;DHT22;38621;52.830;6.914;2024-03-22T07:34:35;10.10;99.90
52725;DHT22;38621;52.830;6.914;2024-03-22T07:37:00;10.10;99.90
52725;DHT22;38621;52.830;6.914;2024-03-22T07:39:26;10.10;99.90
52725;DHT22;38621;52.830;6.914;2024-03-22T07:41:52;10.20;99.90
52725;DHT22;38621;52.830;6.914;2024-03-22T07:44:17;10.10;99.90
52725;DHT22;38621;52.830;6.914;2024-03-22T07:46:45;10.10;99.90
52725;DHT22;38621;52.830;6.914;2024-03-22T07:49:14;10.10;99.90
52725;DHT22;38621;52.830;6.914;2024-03-22T07:51:39;10.10;99.90
52725;DHT22;38621;52.830;6.914;2024-03-22T07:54:05;10.10;99.90
52725;DHT22;38621;52.830;6.914;2024-03-22T07:56:31;10.10;99.90
52725;DHT22;38621;52.830;6.914;2024-03-22T07:58:57;10.10;99.90
52725;DHT22;38621;52.830;6.914;2024-03-22T08:01:23;10.10;99.90
52725;DHT22;38621;52.830;6.914;2024-03-22T08:03:50;10.10;99.90
52725;DHT22;38621;52.830;6.914;2024-03-22T08:06:16;10.10;99.90
52725;DHT22;38621;52.830;6.914;2024-03-22T08:08:42;10.10;99.90
52725;DHT22;38621;52.830;6.914;2024-03-22T08:11:07;10.10;99.90
52725;DHT22;38621;52.830;6.914;2024-03-22T08:13:33;10.10;99.90
52725;DHT22;38621;52.830;6.914;2024-03-22T08:15:59;10.10;99.90
52725;DHT22;38621;52.830;6.914;2024-03-22T08:18:24;10.10;99.90
52725;DHT22;38621;52.830;6.914;2024-03-22T08:20:51;10.10;99.90
52725;DHT22;38621;52.830;6.914;2024-03-22T08:23:17;10.10;99.90
52725;DHT22;38621;52.830;6.914;2024-03-22T08:25:46;10.20;99.90
52725;DHT22;38621;52.830;6.914;2024-03-22T08:28:11;10.20;99.90
52725;DHT22;38621;52.830;6.914;2024-03-22T08:30:39;10.20;99.90
52725;DHT22;38621;52.830;6.914;2024-03-22T08:33:04;10.20;99.90
52725;DHT22;38621;52.830;6.914;2024-03-22T08:35:30;10.50;99.90
52725;DHT22;38621;52.830;6.914;2024-03-22T08:37:56;10.20;99.90
52725;DHT22;38621;52.830;6.914;2024-03-22T08:40:22;10.20;99.90
52725;DHT22;38621;52.830;6.914;2024-03-22T08:42:48;10.20;99.90
52725;DHT22;38621;52.830;6.914;2024-03-22T08:45:14;10.20;99.90
52725;DHT22;38621;52.830;6.914;2024-03-22T08:47:42;10.20;99.90
52725;DHT22;38621;52.830;6.914;2024-03-22T08:50:09;10.20;99.90
52725;DHT22;38621;52.830;6.914;2024-03-22T08:52:34;10.20;99.90
52725;DHT22;38621;52.830;6.914;2024-03-22T08:55:01;10.20;99.90
52725;DHT22;38621;52.830;6.914;2024-03-22T08:57:27;10.10;99.90
52725;DHT22;38621;52.830;6.914;2024-03-22T08:59:52;10.10;99.90
52725;DHT22;38621;52.830;6.914;2024-03-22T09:02:18;10.10;99.90
52725;DHT22;38621;52.830;6.914;2024-03-22T09:04:43;10.00;99.90
52725;DHT22;38621;52.830;6.914;2024-03-22T09:07:10;10.00;99.90
52725;DHT22;38621;52.830;6.914;2024-03-22T09:09:39;10.00;99.90
52725;DHT22;38621;52.830;6.914;2024-03-22T09:12:06;10.00;99.90
52725;DHT22;38621;52.830;6.914;2024-03-22T09:14:33;10.00;99.90
52725;DHT22;38621;52.830;6.914;2024-03-22T09:16:58;10.00;99.90
52725;DHT22;38621;52.830;6.914;2024-03-22T09:19:24;9.90;99.90
52725;DHT22;38621;52.830;6.914;2024-03-22T09:21:53;9.90;99.90
52725;DHT22;38621;52.830;6.914;2024-03-22T09:24:18;9.90;99.90
52725;DHT22;38621;52.830;6.914;2024-03-22T09:26:44;9.90;99.90
52725;DHT22;38621;52.830;6.914;2024-03-22T09:29:10;9.90;99.90
52725;DHT22;38621;52.830;6.914;2024-03-22T09:31:36;9.90;99.90
52725;DHT22;38621;52.830;6.914;2024-03-22T09:34:01;9.90;99.90
52725;DHT22;38621;52.830;6.914;2024-03-22T09:36:27;9.90;99.90
52725;DHT22;38621;52.830;6.914;2024-03-22T09:38:53;9.90;99.90
52725;DHT22;38621;52.830;6.914;2024-03-22T09:41:24;9.80;99.90
52725;DHT22;38621;52.830;6.914;2024-03-22T09:43:51;9.80;99.90
52725;DHT22;38621;52.830;6.914;2024-03-22T09:46:19;9.90;99.90
52725;DHT22;38621;52.830;6.914;2024-03-22T09:48:47;9.80;99.90
52725;DHT22;38621;52.830;6.914;2024-03-22T09:51:17;9.80;99.90
52725;DHT22;38621;52.830;6.914;2024-03-22T09:53:53;9.90;99.90
52725;DHT22;38621;52.830;6.914;2024-03-22T09:56:21;9.90;99.90
52725;DHT22;38621;52.830;6.914;2024-03-22T09:58:47;9.90;99.90
52725;DHT22;38621;52.830;6.914;2024-03-22T10:01:12;9.90;99.90
52725;DHT22;38621;52.830;6.914;2024-03-22T10:03:38;9.90;99.90
52725;DHT22;38621;52.830;6.914;2024-03-22T10:06:04;9.90;99.90
52725;DHT22;38621;52.830;6.914;2024-03-22T10:08:31;10.00;99.90
52725;DHT22;38621;52.830;6.914;2024-03-22T10:10:57;9.90;99.90
52725;DHT22;38621;52.830;6.914;2024-03-22T10:13:23;9.90;99.90
52725;DHT22;38621;52.830;6.914;2024-03-22T10:15:49;10.00;99.90
52725;DHT22;38621;52.830;6.914;2024-03-22T10:18:15;9.90;99.90
52725;DHT22;38621;52.830;6.914;2024-03-22T10:20:41;9.90;99.90
52725;DHT22;38621;52.830;6.914;2024-03-22T10:23:08;9.90;99.90
52725;DHT22;38621;52.830;6.914;2024-03-22T10:25:34;9.90;99.90
52725;DHT22;38621;52.830;6.914;2024-03-22T10:28:01;9.90;99.90
52725;DHT22;38621;52.830;6.914;2024-03-22T10:30:27;9.90;99.90
52725;DHT22;38621;52.830;6.914;2024-03-22T10:32:53;9.90;99.90
52725;DHT22;38621;52.830;6.914;2024-03-22T10:35:19;9.90;99.90
52725;DHT22;38621;52.830;6.914;2024-03-22T10:37:45;10.00;99.90
52725;DHT22;38621;52.830;6.914;2024-03-22T10:40:11;10.10;99.90
52725;DHT22;38621;52.830;6.914;2024-03-22T10:42:38;9.90;99.90
52725;DHT22;38621;52.830;6.914;2024-03-22T10:45:12;9.90;99.90
52725;DHT22;38621;52.830;6.914;2024-03-22T10:47:38;9.90;99.90
52725;DHT22;38621;52.830;6.914;2024-03-22T10:50:11;9.90;99.90
52725;DHT22;38621;52.830;6.914;2024-03-22T10:55:44;9.90;99.90
52725;DHT22;38621;52.830;6.914;2024-03-22T10:58:24;10.00;99.90
52725;DHT22;38621;52.830;6.914;2024-03-22T11:00:54;9.90;99.90
52725;DHT22;38621;52.830;6.914;2024-03-22T11:03:21;10.00;99.90
52725;DHT22;38621;52.830;6.914;2024-03-22T11:05:48;9.90;99.90
52725;DHT22;38621;52.830;6.914;2024-03-22T11:08:26;9.90;99.90
52725;DHT22;38621;52.830;6.914;2024-03-22T11:10:53;9.90;99.90
52725;DHT22;38621;52.830;6.914;2024-03-22T11:13:19;9.90;99.90
52725;DHT22;38621;52.830;6.914;2024-03-22T11:15:47;9.90;99.90
52725;DHT22;38621;52.830;6.914;2024-03-22T11:18:13;9.90;99.90
52725;DHT22;38621;52.830;6.914;2024-03-22T11:20:39;9.90;99.90
52725;DHT22;38621;52.830;6.914;2024-03-22T11:23:05;9.90;99.90
52725;DHT22;38621;52.830;6.914;2024-03-22T11:25:32;10.00;99.90
52725;DHT22;38621;52.830;6.914;2024-03-22T11:27:59;9.90;99.90
52725;DHT22;38621;52.830;6.914;2024-03-22T11:30:27;9.90;99.90
52725;DHT22;38621;52.830;6.914;2024-03-22T11:32:54;9.90;99.90
52725;DHT22;38621;52.830;6.914;2024-03-22T11:35:20;9.90;99.90
52725;DHT22;38621;52.830;6.914;2024-03-22T11:37:45;10.00;99.90
52725;DHT22;38621;52.830;6.914;2024-03-22T11:40:11;10.00;99.90
52725;DHT22;38621;52.830;6.914;2024-03-22T11:42:56;10.10;99.90
52725;DHT22;38621;52.830;6.914;2024-03-22T11:45:23;10.10;99.90
52725;DHT22;38621;52.830;6.914;2024-03-22T11:47:49;10.00;99.90
52725;DHT22;38621;52.830;6.914;2024-03-22T11:50:15;10.10;99.90
52725;DHT22;38621;52.830;6.914;2024-03-22T11:52:42;10.10;99.90
52725;DHT22;38621;52.830;6.914;2024-03-22T11:55:08;10.20;99.90
52725;DHT22;38621;52.830;6.914;2024-03-22T11:57:34;10.20;99.90
52725;DHT22;38621;52.830;6.914;2024-03-22T12:00:01;10.10;99.90
52725;DHT22;38621;52.830;6.914;2024-03-22T12:02:27;10.10;99.90
52725;DHT22;38621;52.830;6.914;2024-03-22T12:04:53;10.20;99.90
52725;DHT22;38621;52.830;6.914;2024-03-22T12:07:19;10.10;99.90
52725;DHT22;38621;52.830;6.914;2024-03-22T12:09:45;10.30;99.90
52725;DHT22;38621;52.830;6.914;2024-03-22T12:12:11;10.10;99.90
52725;DHT22;38621;52.830;6.914;2024-03-22T12:14:38;10.10;99.90
52725;DHT22;38621;52.830;6.914;2024-03-22T12:17:04;10.10;99.90
52725;DHT22;38621;52.830;6.914;2024-03-22T12:19:30;10.10;99.90
52725;DHT22;38621;52.830;6.914;2024-03-22T12:21:56;10.10;99.90
52725;DHT22;38621;52.830;6.914;2024-03-22T12:24:26;10.10;99.90
52725;DHT22;38621;52.830;6.914;2024-03-22T12:26:54;10.10;99.90
52725;DHT22;38621;52.830;6.914;2024-03-22T12:29:20;10.10;99.90
52725;DHT22;38621;52.830;6.914;2024-03-22T12:31:47;10.10;99.90
52725;DHT22;38621;52.830;6.914;2024-03-22T12:34:13;10.10;99.90
52725;DHT22;38621;52.830;6.914;2024-03-22T12:36:38;10.20;99.90
52725;DHT22;38621;52.830;6.914;2024-03-22T12:39:04;10.20;99.90
52725;DHT22;38621;52.830;6.914;2024-03-22T12:41:30;10.30;99.90
52725;DHT22;38621;52.830;6.914;2024-03-22T12:43:57;10.30;99.90
52725;DHT22;38621;52.830;6.914;2024-03-22T12:46:23;10.30;99.90
52725;DHT22;38621;52.830;6.914;2024-03-22T12:48:49;10.50;99.90
52725;DHT22;38621;52.830;6.914;2024-03-22T12:51:15;10.30;99.90
52725;DHT22;38621;52.830;6.914;2024-03-22T12:53:40;10.30;99.90
52725;DHT22;38621;52.830;6.914;2024-03-22T12:56:06;10.50;99.90
52725;DHT22;38621;52.830;6.914;2024-03-22T12:58:32;10.40;99.90
52725;DHT22;38621;52.830;6.914;2024-03-22T13:00:58;10.50;99.90
52725;DHT22;38621;52.830;6.914;2024-03-22T13:03:26;10.50;99.90
52725;DHT22;38621;52.830;6.914;2024-03-22T13:05:52;10.40;99.90
52725;DHT22;38621;52.830;6.914;2024-03-22T13:08:18;10.60;99.90
52725;DHT22;38621;52.830;6.914;2024-03-22T13:10:45;10.30;99.90
52725;DHT22;38621;52.830;6.914;2024-03-22T13:13:11;10.10;99.90
52725;DHT22;38621;52.830;6.914;2024-03-22T13:15:37;9.80;99.90
52725;DHT22;38621;52.830;6.914;2024-03-22T13:18:06;9.70;99.90
52725;DHT22;38621;52.830;6.914;2024-03-22T13:20:34;9.50;99.90
52725;DHT22;38621;52.830;6.914;2024-03-22T13:23:00;9.50;99.90
52725;DHT22;38621;52.830;6.914;2024-03-22T13:25:26;9.50;99.90
52725;DHT22;38621;52.830;6.914;2024-03-22T13:27:52;9.50;99.90
52725;DHT22;38621;52.830;6.914;2024-03-22T13:30:18;9.50;99.90
52725;DHT22;38621;52.830;6.914;2024-03-22T13:32:43;9.50;99.90
52725;DHT22;38621;52.830;6.914;2024-03-22T13:35:10;9.60;99.90
52725;DHT22;38621;52.830;6.914;2024-03-22T13:37:35;9.50;99.90
52725;DHT22;38621;52.830;6.914;2024-03-22T13:40:01;9.50;99.90
52725;DHT22;38621;52.830;6.914;2024-03-22T13:42:27;9.50;99.90
52725;DHT22;38621;52.830;6.914;2024-03-22T13:44:53;9.50;99.90
52725;DHT22;38621;52.830;6.914;2024-03-22T13:47:18;9.40;99.90
52725;DHT22;38621;52.830;6.914;2024-03-22T13:49:44;9.70;99.90
52725;DHT22;38621;52.830;6.914;2024-03-22T13:52:13;9.40;99.90
52725;DHT22;38621;52.830;6.914;2024-03-22T13:54:40;9.40;99.90
52725;DHT22;38621;52.830;6.914;2024-03-22T13:57:06;9.40;99.90
52725;DHT22;38621;52.830;6.914;2024-03-22T13:59:31;9.40;99.90
52725;DHT22;38621;52.830;6.914;2024-03-22T14:01:57;9.40;99.90
52725;DHT22;38621;52.830;6.914;2024-03-22T14:04:23;9.70;99.90
52725;DHT22;38621;52.830;6.914;2024-03-22T14:06:51;9.40;99.90
52725;DHT22;38621;52.830;6.914;2024-03-22T14:09:18;9.40;99.90
52725;DHT22;38621;52.830;6.914;2024-03-22T14:11:43;9.50;99.90
52725;DHT22;38621;52.830;6.914;2024-03-22T14:14:10;9.50;99.90
52725;DHT22;38621;52.830;6.914;2024-03-22T14:16:39;9.50;99.90
52725;DHT22;38621;52.830;6.914;2024-03-22T14:19:05;9.50;99.90
52725;DHT22;38621;52.830;6.914;2024-03-22T14:21:31;9.50;99.90
52725;DHT22;38621;52.830;6.914;2024-03-22T14:23:56;9.50;99.90
52725;DHT22;38621;52.830;6.914;2024-03-22T14:26:22;9.50;99.90
52725;DHT22;38621;52.830;6.914;2024-03-22T14:28:49;9.50;99.90
52725;DHT22;38621;52.830;6.914;2024-03-22T14:31:15;9.50;99.90
52725;DHT22;38621;52.830;6.914;2024-03-22T14:33:41;9.50;99.90
52725;DHT22;38621;52.830;6.914;2024-03-22T14:36:08;9.60;99.90
52725;DHT22;38621;52.830;6.914;2024-03-22T14:38:35;9.60;99.90
52725;DHT22;38621;52.830;6.914;2024-03-22T14:41:00;9.60;99.90
52725;DHT22;38621;52.830;6.914;2024-03-22T14:43:27;9.60;99.90
52725;DHT22;38621;52.830;6.914;2024-03-22T14:45:54;9.60;99.90
52725;DHT22;38621;52.830;6.914;2024-03-22T14:48:20;9.60;99.90
52725;DHT22;38621;52.830;6.914;2024-03-22T14:50:46;9.70;99.90
52725;DHT22;38621;52.830;6.914;2024-03-22T14:53:12;9.60;99.90
52725;DHT22;38621;52.830;6.914;2024-03-22T14:55:38;9.70;99.90
52725;DHT22;38621;52.830;6.914;2024-03-22T14:58:05;9.60;99.90
52725;DHT22;38621;52.830;6.914;2024-03-22T15:00:31;9.70;99.90
52725;DHT22;38621;52.830;6.914;2024-03-22T15:02:57;9.70;99.90
52725;DHT22;38621;52.830;6.914;2024-03-22T15:05:23;9.70;99.90
52725;DHT22;38621;52.830;6.914;2024-03-22T15:07:48;9.70;99.90
52725;DHT22;38621;52.830;6.914;2024-03-22T15:10:14;9.70;99.90
52725;DHT22;38621;52.830;6.914;2024-03-22T15:12:40;9.70;99.90
52725;DHT22;38621;52.830;6.914;2024-03-22T15:15:06;9.70;99.90
52725;DHT22;38621;52.830;6.914;2024-03-22T15:17:33;9.70;99.90
52725;DHT22;38621;52.830;6.914;2024-03-22T15:19:59;9.70;99.90
52725;DHT22;38621;52.830;6.914;2024-03-22T15:22:25;9.70;99.90
52725;DHT22;38621;52.830;6.914;2024-03-22T15:24:51;9.70;99.90
52725;DHT22;38621;52.830;6.914;2024-03-22T15:27:18;9.80;99.90
52725;DHT22;38621;52.830;6.914;2024-03-22T15:29:44;9.70;99.90
52725;DHT22;38621;52.830;6.914;2024-03-22T15:32:10;9.60;99.90
52725;DHT22;38621;52.830;6.914;2024-03-22T15:34:36;9.60;99.90